Time;durP1;ratioP1;P1;durP2;ratioP2;P2;SDS_P1;SDS_P2;PMS_P1;PMS_P2;Temp;Humidity;BMP_temperature;BMP_pressure;BME280_temperature;BME280_humidity;BME280_pressure;Samples;Min_cycle;Max_cycle;Signal;HPM_P1;HPM_P2
2022/05/31 00:02:17;;;;;;;;;;;;;;;;;;5054160;28;20007;-72
2022/05/31 00:05:02;;;;;;;;;;;;;;;;;;5070275;28;20037;-71
2022/05/31 00:07:48;;;;;;;;;;;;;;;;;;5065273;28;19951;-72
2022/05/31 00:10:33;;;;;;;;;;;;;;;;;;5066979;28;19935;-69
2022/05/31 00:13:19;;;;;;;;;;;;;;;;;;5070728;28;19916;-76
2022/05/31 00:16:04;;;;;;;;;;;;;;;;;;5076354;28;19916;-75
2022/05/31 00:18:50;;;;;;;;;;;;;;;;;;5065541;28;19923;-74
2022/05/31 00:21:35;;;;;;;;;;;;;;;;;;5069686;28;19912;-72
2022/05/31 00:24:21;;;;;;;;;;;;;;;;;;5055238;28;19928;-73
2022/05/31 00:27:06;;;;;;;;;;;;;;;;;;5069928;28;19916;-73
2022/05/31 00:29:52;;;;;;;;;;;;;;;;;;5060824;28;19915;-75
2022/05/31 00:32:37;;;;;;;;;;;;;;;;;;5080493;28;19995;-69
2022/05/31 00:35:23;;;;;;;;;;;;;;;;;;5052362;28;20371;-69
2022/05/31 00:38:08;;;;;;;;;;;;;;;;;;5066564;28;19912;-69
2022/05/31 00:41:22;;;;;;;;;;;;;;;;;;5063110;28;20267;-69
2022/05/31 00:44:00;;;;;;;;;;;;;;;;;;5063506;28;19917;-70
2022/05/31 00:46:45;;;;;;;;;;;;;;;;;;5072465;28;20141;-69
2022/05/31 00:49:31;;;;;;;;;;;;;;;;;;5069047;28;19951;-75
2022/05/31 00:52:17;;;;;;;;;;;;;;;;;;5068592;28;19916;-75
2022/05/31 00:55:02;;;;;;;;;;;;;;;;;;5064233;28;19959;-71
2022/05/31 00:57:47;;;;;;;;;;;;;;;;;;5058366;28;20350;-71
2022/05/31 01:00:33;;;;;;;;;;;;;;;;;;5066520;28;19924;-72
2022/05/31 01:03:19;;;;;;;;;;;;;;;;;;5066806;28;19920;-70
2022/05/31 01:06:04;;;;;;;;;;;;;;;;;;5046846;28;20133;-70
2022/05/31 01:08:49;;;;;;;;;;;;;;;;;;5067501;28;19928;-64
2022/05/31 01:11:35;;;;;;;;;;;;;;;;;;5053840;28;20256;-65
2022/05/31 01:14:20;;;;;;;;;;;;;;;;;;5068744;28;19920;-64
2022/05/31 01:17:06;;;;;;;;;;;;;;;;;;5068119;28;19916;-63
2022/05/31 01:20:01;;;;;;;;;;;;;;;;;;5073710;28;19913;-64
2022/05/31 01:22:46;;;;;;;;;;;;;;;;;;5067161;28;19908;-63
2022/05/31 01:25:32;;;;;;;;;;;;;;;;;;5067864;28;19925;-68
2022/05/31 01:28:17;;;;;;;;;;;;;;;;;;5069116;28;20000;-70
2022/05/31 01:31:02;;;;;;;;;;;;;;;;;;5069345;28;19912;-70
2022/05/31 01:33:48;;;;;;;;;;;;;;;;;;5069121;28;20016;-70
2022/05/31 01:36:33;;;;;;;;;;;;;;;;;;5065852;28;20003;-70
2022/05/31 01:39:19;;;;;;;;;;;;;;;;;;5072441;28;20339;-71
2022/05/31 01:42:04;;;;;;;;;;;;;;;;;;5071591;28;19916;-70
2022/05/31 01:44:50;;;;;;;;;;;;;;;;;;5072430;28;19920;-75
2022/05/31 01:47:36;;;;;;;;;;;;;;;;;;5069469;28;19916;-71
2022/05/31 01:50:21;;;;;;;;;;;;;;;;;;5066877;28;19919;-73
2022/05/31 01:53:07;;;;;;;;;;;;;;;;;;5076408;28;20354;-73
2022/05/31 01:55:52;;;;;;;;;;;;;;;;;;5072266;28;19913;-74
2022/05/31 01:58:38;;;;;;;;;;;;;;;;;;5070194;28;19919;-72
2022/05/31 02:01:23;;;;;;;;;;;;;;;;;;5071665;28;19958;-65
2022/05/31 02:04:09;;;;;;;;;;;;;;;;;;5071390;28;19920;-72
2022/05/31 02:07:13;;;;;;;;;;;;;;;;;;5058966;28;20276;-72
2022/05/31 02:09:58;;;;;;;;;;;;;;;;;;5070360;28;20367;-73
2022/05/31 02:12:44;;;;;;;;;;;;;;;;;;5062270;28;19913;-73
2022/05/31 02:15:30;;;;;;;;;;;;;;;;;;5071082;28;19965;-73
2022/05/31 02:18:15;;;;;;;;;;;;;;;;;;5072576;28;19923;-72
2022/05/31 02:21:00;;;;;;;;;;;;;;;;;;5065137;28;19940;-70
2022/05/31 02:23:46;;;;;;;;;;;;;;;;;;5078947;28;19925;-64
2022/05/31 02:26:31;;;;;;;;;;;;;;;;;;5058210;28;19996;-65
2022/05/31 02:29:17;;;;;;;;;;;;;;;;;;5067938;28;19912;-65
2022/05/31 02:32:02;;;;;;;;;;;;;;;;;;5065907;28;19916;-66
2022/05/31 02:34:48;;;;;;;;;;;;;;;;;;5069503;28;19916;-65
2022/05/31 02:37:33;;;;;;;;;;;;;;;;;;5070032;28;20343;-65
2022/05/31 02:40:19;;;;;;;;;;;;;;;;;;5071190;28;19947;-69
2022/05/31 02:43:05;;;;;;;;;;;;;;;;;;5049863;28;19923;-71
2022/05/31 02:45:50;;;;;;;;;;;;;;;;;;5069754;28;19931;-73
2022/05/31 02:48:35;;;;;;;;;;;;;;;;;;5071377;28;19912;-70
2022/05/31 02:51:21;;;;;;;;;;;;;;;;;;5071456;28;20416;-70
2022/05/31 02:54:06;;;;;;;;;;;;;;;;;;5073043;28;19954;-72
2022/05/31 02:56:52;;;;;;;;;;;;;;;;;;5059959;28;20279;-69
2022/05/31 02:59:37;;;;;;;;;;;;;;;;;;5070916;28;20011;-72
2022/05/31 03:02:23;;;;;;;;;;;;;;;;;;5066931;28;19916;-72
2022/05/31 03:05:08;;;;;;;;;;;;;;;;;;5069578;28;19921;-71
2022/05/31 03:07:54;;;;;;;;;;;;;;;;;;5070516;28;19913;-73
2022/05/31 03:10:39;;;;;;;;;;;;;;;;;;5069491;28;20389;-71
2022/05/31 03:13:24;;;;;;;;;;;;;;;;;;5070152;28;19962;-72
2022/05/31 03:16:10;;;;;;;;;;;;;;;;;;5071717;28;19912;-72
2022/05/31 03:18:56;;;;;;;;;;;;;;;;;;5069107;28;19913;-71
2022/05/31 03:21:41;;;;;;;;;;;;;;;;;;5064472;28;19927;-70
2022/05/31 03:24:27;;;;;;;;;;;;;;;;;;5066052;28;19920;-70
2022/05/31 03:27:12;;;;;;;;;;;;;;;;;;5078063;28;19927;-72
2022/05/31 03:29:58;;;;;;;;;;;;;;;;;;5067606;28;19944;-71
2022/05/31 03:32:43;;;;;;;;;;;;;;;;;;5047925;28;20034;-65
2022/05/31 03:35:29;;;;;;;;;;;;;;;;;;5066628;28;19912;-72
2022/05/31 03:38:14;;;;;;;;;;;;;;;;;;5069444;28;19916;-65
2022/05/31 03:41:00;;;;;;;;;;;;;;;;;;5070703;28;19920;-64
2022/05/31 03:43:45;;;;;;;;;;;;;;;;;;5067367;28;20086;-64
2022/05/31 03:46:31;;;;;;;;;;;;;;;;;;5068563;28;19913;-66
2022/05/31 03:49:17;;;;;;;;;;;;;;;;;;5059261;28;19913;-65
2022/05/31 03:52:02;;;;;;;;;;;;;;;;;;5062039;28;20334;-65
2022/05/31 03:54:48;;;;;;;;;;;;;;;;;;5066681;28;19938;-71
2022/05/31 03:57:33;;;;;;;;;;;;;;;;;;5071102;28;19992;-70
2022/05/31 04:00:18;;;;;;;;;;;;;;;;;;5074923;28;19958;-70
2022/05/31 04:03:04;;;;;;;;;;;;;;;;;;5068360;28;19923;-72
2022/05/31 04:05:49;;;;;;;;;;;;;;;;;;5067866;28;19916;-71
2022/05/31 04:08:35;;;;;;;;;;;;;;;;;;5056780;28;20347;-71
2022/05/31 04:11:21;;;;;;;;;;;;;;;;;;5071259;28;19966;-64
2022/05/31 04:14:06;;;;;;;;;;;;;;;;;;5057584;28;19952;-75
2022/05/31 04:16:52;;;;;;;;;;;;;;;;;;5070092;28;19912;-75
2022/05/31 04:19:37;;;;;;;;;;;;;;;;;;5061451;28;20027;-75
2022/05/31 04:22:22;;;;;;;;;;;;;;;;;;5069174;28;19913;-77
2022/05/31 04:25:08;;;;;;;;;;;;;;;;;;5070661;28;19925;-75
2022/05/31 04:27:53;;;;;;;;;;;;;;;;;;5069823;28;20272;-64
2022/05/31 04:30:39;;;;;;;;;;;;;;;;;;5075766;28;19909;-70
2022/05/31 04:33:24;;;;;;;;;;;;;;;;;;5070049;28;19916;-71
2022/05/31 04:36:10;;;;;;;;;;;;;;;;;;5058447;28;19920;-71
2022/05/31 04:38:55;;;;;;;;;;;;;;;;;;5069778;28;19913;-71
2022/05/31 04:41:41;;;;;;;;;;;;;;;;;;5068099;28;19942;-72
2022/05/31 04:44:26;;;;;;;;;;;;;;;;;;5069914;28;19974;-72
2022/05/31 04:47:11;;;;;;;;;;;;;;;;;;5071691;28;19915;-64
2022/05/31 04:49:57;;;;;;;;;;;;;;;;;;5069413;28;19920;-70
2022/05/31 04:52:42;;;;;;;;;;;;;;;;;;5055297;28;19977;-70
2022/05/31 04:55:28;;;;;;;;;;;;;;;;;;5068243;28;19916;-71
2022/05/31 04:58:13;;;;;;;;;;;;;;;;;;5056559;28;19913;-71
2022/05/31 05:01:01;;;;;;;;;;;;;;;;;;5069057;28;19996;-72
2022/05/31 05:03:47;;;;;;;;;;;;;;;;;;5065801;28;19920;-71
2022/05/31 05:06:32;;;;;;;;;;;;;;;;;;5055175;28;19915;-65
2022/05/31 05:09:18;;;;;;;;;;;;;;;;;;5070002;28;19913;-73
2022/05/31 05:12:03;;;;;;;;;;;;;;;;;;5067931;28;19920;-70
2022/05/31 05:14:49;;;;;;;;;;;;;;;;;;5072960;28;19916;-70
2022/05/31 05:17:34;;;;;;;;;;;;;;;;;;5060465;28;19923;-72
2022/05/31 05:20:20;;;;;;;;;;;;;;;;;;5057144;28;19916;-72
2022/05/31 05:23:05;;;;;;;;;;;;;;;;;;5064884;28;19919;-75
2022/05/31 05:25:50;;;;;;;;;;;;;;;;;;5071992;28;20416;-71
2022/05/31 05:31:41;;;;;;;;;;;;;;;;;;5072482;28;20071;-67
2022/05/31 05:34:27;;;;;;;;;;;;;;;;;;5074397;28;20076;-66
2022/05/31 05:37:13;;;;;;;;;;;;;;;;;;5073385;28;19916;-66
2022/05/31 05:39:58;;;;;;;;;;;;;;;;;;5069037;28;20428;-65
2022/05/31 05:42:44;;;;;;;;;;;;;;;;;;5073508;28;19975;-68
2022/05/31 05:45:29;;;;;;;;;;;;;;;;;;5058117;28;19986;-72
2022/05/31 05:48:15;;;;;;;;;;;;;;;;;;5068555;28;20029;-60
2022/05/31 05:51:00;;;;;;;;;;;;;;;;;;5065131;28;19927;-59
2022/05/31 05:53:45;;;;;;;;;;;;;;;;;;5066523;28;19920;-55
2022/05/31 05:56:31;;;;;;;;;;;;;;;;;;5062093;28;20264;-59
2022/05/31 05:59:18;;;;;;;;;;;;;;;;;;5070970;28;19912;-60
2022/05/31 06:02:03;;;;;;;;;;;;;;;;;;5065508;28;20263;-67
2022/05/31 06:04:49;;;;;;;;;;;;;;;;;;5063150;28;19927;-71
2022/05/31 06:07:34;;;;;;;;;;;;;;;;;;5077234;28;19928;-70
2022/05/31 06:10:20;;;;;;;;;;;;;;;;;;5067873;28;19944;-69
2022/05/31 06:13:05;;;;;;;;;;;;;;;;;;5065730;28;20467;-70
2022/05/31 06:15:50;;;;;;;;;;;;;;;;;;5065360;28;20014;-70
2022/05/31 06:18:36;;;;;;;;;;;;;;;;;;5070977;28;20022;-67
2022/05/31 06:21:22;;;;;;;;;;;;;;;;;;5068621;28;19912;-72
2022/05/31 06:24:07;;;;;;;;;;;;;;;;;;5069918;28;19947;-72
2022/05/31 06:26:52;;;;;;;;;;;;;;;;;;5071001;28;20429;-74
2022/05/31 06:29:38;;;;;;;;;;;;;;;;;;5066965;28;19912;-71
2022/05/31 06:32:23;;;;;;;;;;;;;;;;;;5054271;28;20547;-72
2022/05/31 06:35:09;;;;;;;;;;;;;;;;;;5073099;28;19908;-73
2022/05/31 06:37:54;;;;;;;;;;;;;;;;;;5064371;28;19912;-75
2022/05/31 06:40:40;;;;;;;;;;;;;;;;;;5075167;28;19919;-63
2022/05/31 06:43:25;;;;;;;;;;;;;;;;;;5071822;28;20010;-63
2022/05/31 06:46:11;;;;;;;;;;;;;;;;;;5064194;28;19948;-63
2022/05/31 06:48:57;;;;;;;;;;;;;;;;;;5064550;28;19912;-63
2022/05/31 06:57:52;;;;;;;;;;;;;;;;;;5066397;28;19912;-72
2022/05/31 07:00:37;;;;;;;;;;;;;;;;;;5066419;28;19920;-73
2022/05/31 07:03:22;;;;;;;;;;;;;;;;;;5070304;28;19916;-72
2022/05/31 07:06:08;;;;;;;;;;;;;;;;;;5071524;28;20287;-73
2022/05/31 07:08:53;;;;;;;;;;;;;;;;;;5065627;28;19916;-73
2022/05/31 07:11:39;;;;;;;;;;;;;;;;;;5070936;28;19935;-71
2022/05/31 07:14:25;;;;;;;;;;;;;;;;;;5063714;28;19921;-74
2022/05/31 07:17:10;;;;;;;;;;;;;;;;;;5071400;28;20379;-77
2022/05/31 07:19:56;;;;;;;;;;;;;;;;;;5065804;28;19916;-75
2022/05/31 07:22:41;;;;;;;;;;;;;;;;;;5058573;28;20360;-75
2022/05/31 07:25:27;;;;;;;;;;;;;;;;;;5061507;28;19920;-74
2022/05/31 07:28:12;;;;;;;;;;;;;;;;;;5068152;28;19919;-75
2022/05/31 07:30:58;;;;;;;;;;;;;;;;;;5068039;28;19919;-75
2022/05/31 07:33:43;;;;;;;;;;;;;;;;;;5065823;28;19919;-77
2022/05/31 07:36:29;;;;;;;;;;;;;;;;;;5054077;28;19967;-63
2022/05/31 07:39:14;;;;;;;;;;;;;;;;;;5067134;28;19913;-62
2022/05/31 07:41:59;;;;;;;;;;;;;;;;;;5057196;28;20073;-63
2022/05/31 07:44:45;;;;;;;;;;;;;;;;;;5063150;28;19931;-62
2022/05/31 07:47:30;;;;;;;;;;;;;;;;;;5061109;28;19967;-63
2022/05/31 07:50:16;;;;;;;;;;;;;;;;;;5065458;28;19912;-68
2022/05/31 07:53:03;;;;;;;;;;;;;;;;;;5067133;28;19966;-73
2022/05/31 07:55:48;;;;;;;;;;;;;;;;;;5066959;28;19983;-76
2022/05/31 07:58:34;;;;;;;;;;;;;;;;;;5069672;28;20382;-77
2022/05/31 08:01:22;;;;;;;;;;;;;;;;;;5067268;28;19913;-77
2022/05/31 08:04:07;;;;;;;;;;;;;;;;;;5061323;28;19968;-78
2022/05/31 08:06:57;;;;;;;;;;;;;;;;;;5053881;28;19912;-76
2022/05/31 08:09:44;;;;;;;;;;;;;;;;;;5066790;28;20387;-72
2022/05/31 08:12:30;;;;;;;;;;;;;;;;;;5064284;28;19913;-60
2022/05/31 08:15:15;;;;;;;;;;;;;;;;;;5070231;28;19935;-61
2022/05/31 08:18:01;;;;;;;;;;;;;;;;;;5060211;28;19908;-60
2022/05/31 08:20:46;;;;;;;;;;;;;;;;;;5067841;28;20418;-60
2022/05/31 08:23:31;;;;;;;;;;;;;;;;;;5069221;28;19948;-61
2022/05/31 08:26:17;;;;;;;;;;;;;;;;;;5056286;28;19913;-60
2022/05/31 08:29:02;;;;;;;;;;;;;;;;;;5067901;28;20341;-75
2022/05/31 08:31:48;;;;;;;;;;;;;;;;;;5060213;28;19921;-61
2022/05/31 08:34:33;;;;;;;;;;;;;;;;;;5065379;28;20256;-60
2022/05/31 08:37:19;;;;;;;;;;;;;;;;;;5069094;28;19979;-60
2022/05/31 08:40:04;;;;;;;;;;;;;;;;;;5056995;28;19916;-60
2022/05/31 08:42:50;;;;;;;;;;;;;;;;;;5068271;28;19958;-61
2022/05/31 08:45:35;;;;;;;;;;;;;;;;;;5067615;28;19916;-63
2022/05/31 08:48:20;;;;;;;;;;;;;;;;;;5068099;28;20390;-75
2022/05/31 08:57:14;;;;;;;;;;;;;;;;;;5066909;28;19924;-76
2022/05/31 09:00:00;;;;;;;;;;;;;;;;;;5054408;28;20512;-75
2022/05/31 09:02:47;;;;;;;;;;;;;;;;;;5074478;28;19920;-74
2022/05/31 09:05:32;;;;;;;;;;;;;;;;;;5047378;28;19916;-64
2022/05/31 09:08:18;;;;;;;;;;;;;;;;;;5073331;28;19920;-69
2022/05/31 09:11:03;;;;;;;;;;;;;;;;;;5075218;28;20325;-69
2022/05/31 09:13:49;;;;;;;;;;;;;;;;;;5073799;28;20438;-69
2022/05/31 09:16:34;;;;;;;;;;;;;;;;;;5074174;28;20262;-72
2022/05/31 09:19:20;;;;;;;;;;;;;;;;;;5081304;28;20371;-73
2022/05/31 09:22:07;;;;;;;;;;;;;;;;;;5071884;28;19912;-67
2022/05/31 09:24:52;;;;;;;;;;;;;;;;;;5073660;28;20015;-60
2022/05/31 09:27:38;;;;;;;;;;;;;;;;;;5070127;28;19912;-74
2022/05/31 09:30:24;;;;;;;;;;;;;;;;;;5072725;28;19974;-76
2022/05/31 09:33:09;;;;;;;;;;;;;;;;;;5074887;28;19908;-75
2022/05/31 09:35:55;;;;;;;;;;;;;;;;;;5070021;28;19924;-76
2022/05/31 09:38:41;;;;;;;;;;;;;;;;;;5074801;28;19915;-76
2022/05/31 09:41:26;;;;;;;;;;;;;;;;;;5074083;28;19912;-62
2022/05/31 09:44:12;;;;;;;;;;;;;;;;;;5069650;28;19928;-68
2022/05/31 09:46:57;;;;;;;;;;;;;;;;;;5070043;28;19919;-65
2022/05/31 09:49:43;;;;;;;;;;;;;;;;;;5047626;28;19941;-67
2022/05/31 09:52:30;;;;;;;;;;;;;;;;;;5062844;28;19974;-66
2022/05/31 09:58:20;;;;;;;;;;;;;;;;;;5074041;28;20399;-69
2022/05/31 10:01:06;;;;;;;;;;;;;;;;;;5070365;28;19966;-80
2022/05/31 10:03:51;;;;;;;;;;;;;;;;;;5061468;28;19943;-65
2022/05/31 10:06:37;;;;;;;;;;;;;;;;;;5068004;28;19955;-65
2022/05/31 10:09:22;;;;;;;;;;;;;;;;;;5072648;28;19912;-66
2022/05/31 10:12:07;;;;;;;;;;;;;;;;;;5068914;28;20363;-66
2022/05/31 10:14:54;;;;;;;;;;;;;;;;;;5058522;28;19913;-63
2022/05/31 10:17:41;;;;;;;;;;;;;;;;;;5063486;28;19927;-63
2022/05/31 10:20:26;;;;;;;;;;;;;;;;;;5072901;28;19974;-60
2022/05/31 10:23:13;;;;;;;;;;;;;;;;;;5079240;28;19991;-60
2022/05/31 10:25:58;;;;;;;;;;;;;;;;;;5073304;28;19920;-61
2022/05/31 10:28:44;;;;;;;;;;;;;;;;;;5071730;28;19959;-61
2022/05/31 10:31:29;;;;;;;;;;;;;;;;;;5072783;28;19920;-64
2022/05/31 10:34:15;;;;;;;;;;;;;;;;;;5071655;28;20295;-62
2022/05/31 10:37:00;;;;;;;;;;;;;;;;;;5071794;28;19920;-61
2022/05/31 10:39:46;;;;;;;;;;;;;;;;;;5064743;28;20371;-61
2022/05/31 10:42:31;;;;;;;;;;;;;;;;;;5072662;28;19955;-62
2022/05/31 10:45:17;;;;;;;;;;;;;;;;;;5073386;28;20359;-62
2022/05/31 10:48:02;;;;;;;;;;;;;;;;;;5065958;28;19920;-67
2022/05/31 10:50:47;;;;;;;;;;;;;;;;;;5073547;28;20324;-64
2022/05/31 10:53:34;;;;;;;;;;;;;;;;;;5074921;28;19908;-53
2022/05/31 10:56:19;;;;;;;;;;;;;;;;;;5076376;28;19935;-61
2022/05/31 10:59:05;;;;;;;;;;;;;;;;;;5070611;28;19981;-59
2022/05/31 11:01:50;;;;;;;;;;;;;;;;;;5072216;28;19916;-60
2022/05/31 11:04:36;;;;;;;;;;;;;;;;;;5066930;28;19990;-60
2022/05/31 11:07:21;;;;;;;;;;;;;;;;;;5061330;28;20006;-63
2022/05/31 11:13:11;;;;;;;;;;;;;;;;;;5071694;28;20387;-63
2022/05/31 11:15:57;;;;;;;;;;;;;;;;;;5051930;28;19939;-66
2022/05/31 11:18:42;;;;;;;;;;;;;;;;;;5072529;28;20595;-67
2022/05/31 11:21:27;;;;;;;;;;;;;;;;;;5071445;28;19912;-64
2022/05/31 11:24:13;;;;;;;;;;;;;;;;;;5068688;28;19964;-68
2022/05/31 11:26:58;;;;;;;;;;;;;;;;;;5077642;28;19908;-67
2022/05/31 11:29:45;;;;;;;;;;;;;;;;;;5072322;28;20375;-60
2022/05/31 11:32:30;;;;;;;;;;;;;;;;;;5071335;28;19920;-58
2022/05/31 11:35:16;;;;;;;;;;;;;;;;;;5072772;28;19908;-60
2022/05/31 11:38:02;;;;;;;;;;;;;;;;;;5059452;28;19913;-60
2022/05/31 11:40:47;;;;;;;;;;;;;;;;;;5071699;28;19912;-55
2022/05/31 11:43:34;;;;;;;;;;;;;;;;;;5071783;28;19912;-66
2022/05/31 11:46:19;;;;;;;;;;;;;;;;;;5071343;28;19912;-69
2022/05/31 11:49:06;;;;;;;;;;;;;;;;;;5069572;28;20260;-80
2022/05/31 11:51:52;;;;;;;;;;;;;;;;;;5070690;28;20344;-71
2022/05/31 11:54:37;;;;;;;;;;;;;;;;;;5072189;28;19920;-71
2022/05/31 11:57:23;;;;;;;;;;;;;;;;;;5073003;28;20007;-75
2022/05/31 12:00:08;;;;;;;;;;;;;;;;;;5077007;28;19909;-70
2022/05/31 12:02:54;;;;;;;;;;;;;;;;;;5067213;28;20358;-77
2022/05/31 12:05:40;;;;;;;;;;;;;;;;;;5072190;28;19920;-68
2022/05/31 12:08:27;;;;;;;;;;;;;;;;;;5070464;28;19924;-58
2022/05/31 12:11:12;;;;;;;;;;;;;;;;;;5072014;28;19908;-70
